Time;durP1;ratioP1;P1;durP2;ratioP2;P2;SDS_P1;SDS_P2;PMS_P1;PMS_P2;Temp;Humidity;BMP_temperature;BMP_pressure;BME280_temperature;BME280_humidity;BME280_pressure;Samples;Min_cycle;Max_cycle;Signal;HPM_P1;HPM_P2
2021/12/28 00:03:04;;;;;;;26.30;11.30;;;;;;;-5.01;77.10;99412.84;207144;1318;140740;-72
2021/12/28 00:08:12;;;;;;;38.00;14.60;;;;;;;-5.02;77.18;99412.58;207272;1316;140706;-68
2021/12/28 00:13:22;;;;;;;36.00;18.20;;;;;;;-4.96;76.97;99411.19;208233;1316;141553;-69
2021/12/28 00:18:28;;;;;;;30.60;15.60;;;;;;;-4.96;77.17;99410.09;207132;1316;140642;-72
2021/12/28 00:23:39;;;;;;;28.50;13.40;;;;;;;-4.97;77.16;99409.71;208599;1316;142204;-69
2021/12/28 00:28:44;;;;;;;27.20;14.80;;;;;;;-4.98;77.31;99415.81;207309;1316;139857;-68
2021/12/28 00:33:51;;;;;;;16.20;7.90;;;;;;;-4.95;77.21;99417.11;207996;1316;140863;-66
2021/12/28 00:38:57;;;;;;;26.50;13.90;;;;;;;-4.97;77.26;99406.17;207288;1316;139965;-68
2021/12/28 00:44:03;;;;;;;26.10;13.20;;;;;;;-5.00;77.41;99403.75;208667;1316;140272;-67
2021/12/28 00:49:09;;;;;;;27.80;14.30;;;;;;;-4.93;77.56;99405.52;208591;1317;142266;-68
2021/12/28 00:54:12;;;;;;;16.80;9.90;;;;;;;-4.89;77.42;99401.23;208763;1317;141706;-71
2021/12/28 00:59:20;;;;;;;17.20;8.20;;;;;;;-4.92;77.33;99400.36;208394;1317;141078;-65
2021/12/28 01:04:26;;;;;;;;;;;;;;;-4.93;77.12;99394.75;209330;1315;140011;-70
2021/12/28 01:09:31;;;;;;;24.10;9.80;;;;;;;-4.98;77.07;99395.35;209451;1317;126556;-67
2021/12/28 01:14:33;;;;;;;15.00;9.80;;;;;;;-4.98;77.24;99394.04;208624;1318;140766;-75
2021/12/28 01:19:36;;;;;;;30.30;12.90;;;;;;;-4.96;77.31;99387.63;207459;1316;142171;-73
2021/12/28 01:24:39;;;;;;;17.50;9.80;;;;;;;-4.96;77.30;99383.24;206821;1316;142371;-68
2021/12/28 01:29:45;;;;;;;20.60;10.90;;;;;;;-5.02;77.37;99376.35;207893;1317;142800;-73
2021/12/28 01:34:49;;;;;;;33.40;13.90;;;;;;;-5.05;77.41;99378.36;207039;1316;140956;-69
2021/12/28 01:39:52;;;;;;;23.60;10.60;;;;;;;-5.04;77.42;99373.95;207395;1316;142023;-71
2021/12/28 01:44:54;;;;;;;23.60;12.20;;;;;;;-5.06;77.59;99368.73;207824;1315;140599;-70
2021/12/28 01:49:57;;;;;;;17.60;10.10;;;;;;;-5.06;77.82;99355.98;207093;1315;141250;-70
2021/12/28 01:54:59;;;;;;;26.60;12.40;;;;;;;-5.04;77.73;99352.15;207012;1316;141339;-69
2021/12/28 02:00:04;;;;;;;24.60;11.90;;;;;;;-4.99;77.67;99336.91;206971;1316;143469;-69
2021/12/28 02:05:09;;;;;;;21.60;11.20;;;;;;;-5.02;77.68;99325.95;208392;1318;141941;-71
2021/12/28 02:10:11;;;;;;;22.20;10.90;;;;;;;-5.11;77.72;99321.08;207042;1317;140021;-69
2021/12/28 02:15:15;;;;;;;24.10;13.00;;;;;;;-5.14;77.83;99310.58;208287;1316;141086;-70
2021/12/28 02:20:21;;;;;;;12.20;7.30;;;;;;;-5.12;77.87;99304.88;207208;1314;141421;-68
2021/12/28 02:25:24;;;;;;;14.90;8.50;;;;;;;-5.11;77.90;99308.23;206985;1317;142848;-69
2021/12/28 02:30:27;;;;;;;24.80;11.10;;;;;;;-5.09;77.91;99305.98;207033;1318;140626;-68
2021/12/28 02:35:30;;;;;;;20.20;8.80;;;;;;;-5.03;77.86;99304.38;209007;1318;141093;-70
2021/12/28 02:40:36;;;;;;;23.70;11.40;;;;;;;-5.02;77.81;99301.66;207982;1316;139542;-71
2021/12/28 02:45:57;;;;;;;19.50;8.80;;;;;;;-5.06;77.79;99304.52;208171;1316;140282;-74
2021/12/28 02:51:08;;;;;;;18.50;10.00;;;;;;;-5.03;77.69;99303.04;207286;1314;139942;-74
2021/12/28 02:56:12;;;;;;;15.20;7.90;;;;;;;-5.03;77.80;99299.56;207793;1316;142368;-74
2021/12/28 03:01:21;;;;;;;17.60;10.00;;;;;;;-5.04;77.85;99296.88;209134;1318;140459;-74
2021/12/28 03:06:24;;;;;;;19.50;10.40;;;;;;;-5.03;77.77;99297.97;208718;1318;140571;-69
2021/12/28 03:11:29;;;;;;;17.90;8.20;;;;;;;-5.00;77.87;99295.09;209292;1319;141493;-70
2021/12/28 03:16:34;;;;;;;21.90;9.50;;;;;;;-4.99;77.89;99288.42;208677;1318;140413;-70
2021/12/28 03:21:38;;;;;;;18.60;9.60;;;;;;;-4.98;77.82;99280.19;209357;1316;142037;-70
2021/12/28 03:26:41;;;;;;;23.00;12.00;;;;;;;-4.93;77.58;99279.53;208498;1317;143883;-69
2021/12/28 03:31:45;;;;;;;14.70;7.30;;;;;;;-4.91;77.72;99272.58;207030;1318;141083;-68
2021/12/28 03:36:47;;;;;;;17.20;11.20;;;;;;;-4.93;77.76;99265.08;207989;1317;139526;-69
2021/12/28 03:41:50;;;;;;;18.10;10.20;;;;;;;-4.92;77.98;99257.71;207220;1316;211738;-68
2021/12/28 03:46:52;;;;;;;22.40;9.60;;;;;;;-4.89;77.99;99255.71;208547;1316;141007;-68
2021/12/28 03:51:55;;;;;;;13.10;7.70;;;;;;;-4.90;78.01;99257.52;208819;1316;140735;-68
2021/12/28 03:57:01;;;;;;;24.10;11.10;;;;;;;-4.88;78.15;99252.80;206996;1315;139313;-69
2021/12/28 04:02:05;;;;;;;34.30;15.70;;;;;;;-4.80;78.02;99260.02;208071;1316;141838;-68
2021/12/28 04:07:12;;;;;;;13.40;6.90;;;;;;;-4.73;78.28;99261.59;208134;1315;140879;-68
2021/12/28 04:12:20;;;;;;;14.30;8.40;;;;;;;-4.75;77.97;99262.28;207353;1316;141548;-67
2021/12/28 04:17:26;;;;;;;15.20;8.50;;;;;;;-4.80;78.05;99269.41;207281;1318;140314;-72
2021/12/28 04:22:29;;;;;;;21.20;8.50;;;;;;;-4.77;78.06;99265.58;207026;1318;141669;-73
2021/12/28 04:27:31;;;;;;;22.10;10.30;;;;;;;-4.75;78.32;99259.52;207216;1316;140661;-71
2021/12/28 04:32:34;;;;;;;15.60;10.80;;;;;;;-4.77;78.47;99260.45;207202;1316;140196;-71
2021/12/28 04:37:42;;;;;;;22.20;11.20;;;;;;;-4.73;78.54;99262.69;206739;1315;139783;-71
2021/12/28 04:42:48;;;;;;;17.50;9.80;;;;;;;-4.68;78.47;99262.31;207504;1315;139898;-70
2021/12/28 04:47:50;;;;;;;25.40;12.00;;;;;;;-4.69;78.54;99261.70;207112;1316;140404;-71
2021/12/28 04:52:57;;;;;;;18.10;7.20;;;;;;;-4.68;78.82;99253.80;207168;1315;142065;-71
2021/12/28 04:58:01;;;;;;;25.30;11.50;;;;;;;-4.65;78.80;99243.46;208427;1315;139914;-71
2021/12/28 05:03:05;;;;;;;19.80;9.60;;;;;;;-4.62;78.70;99241.15;207561;1315;142689;-67
2021/12/28 05:08:11;;;;;;;19.50;9.80;;;;;;;-4.63;78.93;99247.14;209622;1316;140719;-69
2021/12/28 05:13:15;;;;;;;29.20;13.40;;;;;;;-4.58;78.79;99239.61;207566;1316;141166;-68
2021/12/28 05:18:17;;;;;;;30.20;13.30;;;;;;;-4.51;78.65;99240.30;209005;1316;141836;-70
2021/12/28 05:23:19;;;;;;;11.20;7.30;;;;;;;-4.49;78.76;99237.72;209163;1316;140367;-68
2021/12/28 05:28:25;;;;;;;28.50;11.10;;;;;;;-4.48;78.73;99234.00;208216;1317;140129;-68
2021/12/28 05:33:29;;;;;;;23.50;12.40;;;;;;;-4.43;78.62;99231.86;208821;1316;142201;-69
2021/12/28 05:38:33;;;;;;;24.10;12.10;;;;;;;-4.38;78.71;99229.05;207351;1316;139838;-70
2021/12/28 05:43:37;;;;;;;31.10;11.90;;;;;;;-4.35;78.71;99231.20;207521;1316;139759;-70
2021/12/28 05:48:39;;;;;;;36.80;15.80;;;;;;;-4.38;78.65;99238.36;207334;1318;139779;-69
2021/12/28 05:53:43;;;;;;;31.00;14.90;;;;;;;-4.35;78.79;99234.33;203800;1318;5272687;-69
2021/12/28 05:58:47;;;;;;;25.50;14.30;;;;;;;-4.36;78.77;99232.30;207261;1315;141157;-69
2021/12/28 06:03:51;;;;;;;34.40;15.40;;;;;;;-4.39;78.79;99233.61;207792;1316;141161;-70
2021/12/28 06:08:54;;;;;;;28.50;11.70;;;;;;;-4.39;78.95;99232.11;207264;1316;140895;-67
2021/12/28 06:13:57;;;;;;;28.00;14.20;;;;;;;-4.39;78.76;99225.65;207952;1316;141133;-70
2021/12/28 06:19:09;;;;;;;22.20;10.00;;;;;;;-4.41;78.72;99226.77;207311;1319;140746;-75
2021/12/28 06:24:12;;;;;;;22.00;11.50;;;;;;;-4.49;79.03;99222.63;207221;1316;140790;-75
2021/12/28 06:29:17;;;;;;;26.10;15.40;;;;;;;-4.52;78.98;99228.85;207718;1316;140618;-71
2021/12/28 06:34:20;;;;;;;26.90;15.90;;;;;;;-4.51;78.87;99228.70;207743;1316;140246;-72
2021/12/28 06:39:23;;;;;;;27.20;13.60;;;;;;;-4.48;79.04;99218.48;207735;1316;140187;-70
2021/12/28 06:44:27;;;;;;;25.40;12.50;;;;;;;-4.44;79.08;99223.03;208605;1316;140022;-72
2021/12/28 06:49:31;;;;;;;19.50;12.70;;;;;;;-4.40;79.32;99226.09;208680;1315;140206;-74
2021/12/28 06:54:37;;;;;;;20.50;12.40;;;;;;;-4.34;78.90;99230.53;206894;1318;141393;-69
2021/12/28 06:59:45;;;;;;;24.80;13.80;;;;;;;-4.34;79.11;99238.69;208777;1316;140896;-73
2021/12/28 07:04:52;;;;;;;28.60;14.40;;;;;;;-4.35;79.18;99235.15;208354;1315;161953;-70
2021/12/28 07:09:57;;;;;;;26.80;14.30;;;;;;;-4.34;78.92;99240.80;208104;1318;141111;-67
2021/12/28 07:15:01;;;;;;;17.00;9.40;;;;;;;-4.33;78.86;99236.00;209186;1315;140561;-66
2021/12/28 07:20:05;;;;;;;27.60;13.00;;;;;;;-4.30;78.89;99237.81;209588;1317;142632;-67
2021/12/28 07:25:14;;;;;;;31.40;16.00;;;;;;;-4.26;78.59;99237.13;209436;1316;140661;-69
2021/12/28 07:30:17;;;;;;;19.40;10.90;;;;;;;-4.20;78.56;99221.30;208965;1316;140850;-67
2021/12/28 07:35:21;;;;;;;32.40;16.60;;;;;;;-4.23;78.45;99214.52;207619;1322;140611;-71
2021/12/28 07:40:25;;;;;;;23.00;13.50;;;;;;;-4.29;78.46;99203.48;207284;1316;140914;-68
2021/12/28 07:45:27;;;;;;;30.70;15.40;;;;;;;-4.28;78.35;99199.23;207715;1315;140973;-71
2021/12/28 07:50:30;;;;;;;20.20;10.60;;;;;;;-4.25;78.68;99196.31;209164;1316;139676;-69
2021/12/28 07:55:34;;;;;;;27.20;13.80;;;;;;;-4.18;78.85;99196.10;207845;1315;140670;-69
2021/12/28 08:00:38;;;;;;;23.30;13.10;;;;;;;-3.98;78.59;99189.80;207092;1317;141618;-69
2021/12/28 08:05:42;;;;;;;18.10;10.60;;;;;;;-3.91;78.35;99197.55;206954;1318;162920;-68
2021/12/28 08:10:46;;;;;;;17.80;10.60;;;;;;;-3.85;78.44;99196.73;208226;1318;141601;-68
2021/12/28 08:15:49;;;;;;;21.00;11.20;;;;;;;-3.74;78.17;99193.24;207170;1318;143283;-68
2021/12/28 08:20:52;;;;;;;23.20;12.80;;;;;;;-3.66;78.19;99194.27;208322;1318;140208;-71
2021/12/28 08:25:55;;;;;;;29.70;13.90;;;;;;;-3.55;78.12;99197.37;207803;1316;140698;-73
2021/12/28 08:30:59;;;;;;;18.20;11.10;;;;;;;-3.47;78.01;99201.22;207108;1315;141191;-68
2021/12/28 08:36:02;;;;;;;26.50;13.90;;;;;;;-3.41;78.08;99200.42;207119;1317;140477;-66
2021/12/28 08:41:06;;;;;;;29.30;15.20;;;;;;;-3.34;78.09;99195.84;207937;1316;140769;-66
2021/12/28 08:46:09;;;;;;;14.90;10.80;;;;;;;-3.25;77.73;99188.60;207384;1315;143073;-68
2021/12/28 08:51:13;;;;;;;19.60;10.60;;;;;;;-3.24;77.78;99193.03;207430;1319;140977;-67
2021/12/28 08:56:16;;;;;;;28.50;15.50;;;;;;;-3.27;77.55;99180.35;207805;1316;140111;-69
2021/12/28 09:01:21;;;;;;;15.40;10.20;;;;;;;-3.28;77.55;99177.96;207936;1316;141493;-67
2021/12/28 09:06:25;;;;;;;21.60;13.10;;;;;;;-3.21;77.65;99168.90;208124;1316;141564;-68
2021/12/28 09:11:28;;;;;;;25.20;11.20;;;;;;;-3.13;77.45;99158.85;208519;1316;141672;-67
2021/12/28 09:16:32;;;;;;;19.20;12.40;;;;;;;-3.03;77.17;99155.32;208006;1315;153329;-66
2021/12/28 09:21:35;;;;;;;25.80;13.80;;;;;;;-3.04;76.96;99153.91;207809;1316;141248;-66
2021/12/28 09:26:39;;;;;;;27.50;14.00;;;;;;;-3.00;77.06;99160.11;207859;1319;141460;-66
2021/12/28 09:31:43;;;;;;;23.70;13.70;;;;;;;-2.99;76.84;99155.98;208729;1316;141188;-66
2021/12/28 09:36:46;;;;;;;24.50;13.80;;;;;;;-2.91;76.93;99152.23;208880;1315;140643;-66
2021/12/28 09:41:54;;;;;;;28.10;14.50;;;;;;;-2.78;76.69;99143.15;208362;1318;142160;-71
2021/12/28 09:46:58;;;;;;;34.40;18.20;;;;;;;-2.75;76.66;99132.50;209582;1316;140182;-69
2021/12/28 09:52:05;;;;;;;27.10;15.40;;;;;;;-2.76;76.51;99126.22;208972;1316;150341;-67
2021/12/28 09:57:08;;;;;;;19.20;12.00;;;;;;;-2.82;76.18;99120.58;207631;1316;140603;-67
2021/12/28 10:02:14;;;;;;;23.10;12.60;;;;;;;-2.77;76.60;99123.55;207774;1316;142851;-72
2021/12/28 10:07:24;;;;;;;24.50;13.30;;;;;;;-2.66;76.50;99115.08;207219;1318;140294;-73
2021/12/28 10:12:33;;;;;;;27.30;14.30;;;;;;;-2.66;76.56;99106.50;206969;1316;141098;-71
2021/12/28 10:17:38;;;;;;;24.70;13.40;;;;;;;-2.60;76.35;99106.53;207481;1316;141426;-72
2021/12/28 10:22:47;;;;;;;23.10;13.90;;;;;;;-2.63;76.25;99106.69;207256;1316;142817;-69
2021/12/28 10:27:52;;;;;;;24.50;15.20;;;;;;;-2.59;76.40;99109.43;207426;1317;141222;-70
2021/12/28 10:33:00;;;;;;;20.50;13.60;;;;;;;-2.46;76.44;99104.34;207475;1316;141355;-68
2021/12/28 10:38:06;;;;;;;21.90;14.00;;;;;;;-2.31;76.27;99093.34;207026;1316;141048;-68
2021/12/28 10:43:14;;;;;;;22.50;14.10;;;;;;;-2.33;75.95;99097.69;207039;1316;142330;-68
2021/12/28 10:48:23;;;;;;;19.20;11.80;;;;;;;-2.41;75.96;99093.88;207065;1316;141098;-67
2021/12/28 10:53:36;;;;;;;21.50;14.40;;;;;;;-2.48;76.08;99095.39;207349;1316;140702;-68
2021/12/28 10:58:42;;;;;;;28.90;14.60;;;;;;;-2.51;76.17;99093.48;207346;1316;140760;-69
2021/12/28 11:03:48;;;;;;;25.80;14.20;;;;;;;-2.52;76.08;99090.70;207472;1316;141251;-70
2021/12/28 11:08:54;;;;;;;21.80;12.30;;;;;;;-2.56;75.98;99083.54;207516;1321;141974;-72
2021/12/28 11:14:07;;;;;;;24.00;12.50;;;;;;;-2.56;75.91;99071.88;207672;1316;142707;-69
2021/12/28 11:19:13;;;;;;;18.20;11.50;;;;;;;-2.49;75.83;99069.59;207956;1317;141519;-67
2021/12/28 11:24:17;;;;;;;18.20;11.20;;;;;;;-2.47;76.04;99060.45;207628;1316;140992;-69
2021/12/28 11:29:27;;;;;;;21.90;14.70;;;;;;;-2.39;75.94;99055.90;208239;1317;140279;-66
2021/12/28 11:34:38;;;;;;;22.70;13.90;;;;;;;-2.31;75.77;99049.98;207681;1316;140382;-66
2021/12/28 11:40:11;;;;;;;22.50;13.20;;;;;;;-2.37;75.71;99040.17;208288;1316;140940;-66
2021/12/28 11:45:14;;;;;;;26.50;13.10;;;;;;;-2.36;75.75;99035.86;209516;1313;140071;-70
2021/12/28 11:50:17;;;;;;;28.30;14.80;;;;;;;-2.39;75.24;99029.80;209140;1316;143443;-69
2021/12/28 11:55:43;;;;;;;27.00;15.30;;;;;;;-2.43;75.70;99024.59;208915;1316;140171;-67
2021/12/28 12:00:54;;;;;;;19.30;12.40;;;;;;;-2.42;75.49;99020.19;206916;1316;141335;-68
2021/12/28 12:05:58;;;;;;;30.60;13.20;;;;;;;-2.44;75.62;99012.77;207593;1316;250045;-66
2021/12/28 12:11:11;;;;;;;20.50;12.10;;;;;;;-2.46;75.64;99008.52;208167;1317;142735;-69
2021/12/28 12:16:16;;;;;;;25.20;12.30;;;;;;;-2.39;75.48;98993.92;208639;1316;140514;-67
2021/12/28 12:21:25;;;;;;;18.20;12.60;;;;;;;-2.39;75.57;98989.61;208399;1316;140620;-68
2021/12/28 12:26:39;;;;;;;16.50;12.20;;;;;;;-2.40;75.50;98984.52;207456;1315;141147;-69
2021/12/28 12:31:49;;;;;;;19.70;14.10;;;;;;;-2.44;75.52;98979.40;208223;1317;140306;-70
2021/12/28 12:36:54;;;;;;;35.30;16.60;;;;;;;-2.47;75.64;98979.88;207558;1316;140155;-72
2021/12/28 12:41:58;;;;;;;34.30;18.90;;;;;;;-2.45;75.69;98969.78;207445;1315;142495;-67
2021/12/28 12:47:08;;;;;;;21.40;12.80;;;;;;;-2.43;75.72;98967.02;207836;1317;139737;-67
2021/12/28 12:52:16;;;;;;;32.80;17.70;;;;;;;-2.46;75.63;98964.30;208296;1317;140400;-66
2021/12/28 12:57:54;;;;;;;27.60;16.40;;;;;;;-2.46;75.97;98967.38;207961;1316;139674;-70
2021/12/28 13:03:00;;;;;;;25.10;15.80;;;;;;;-2.44;75.60;98955.91;206711;1317;141225;-67
2021/12/28 13:08:09;;;;;;;26.60;15.70;;;;;;;-2.55;75.63;98955.77;207606;1315;141558;-68
2021/12/28 13:13:13;;;;;;;32.90;17.60;;;;;;;-2.60;75.99;98959.11;206820;1316;141879;-67
2021/12/28 13:18:18;;;;;;;29.90;14.50;;;;;;;-2.61;75.76;98953.67;208176;1316;141543;-67
2021/12/28 13:23:22;;;;;;;19.60;13.00;;;;;;;-2.71;75.86;98951.23;207679;1318;140691;-67
2021/12/28 13:28:25;;;;;;;28.00;14.60;;;;;;;-2.80;75.60;98945.48;208058;1316;141686;-67
2021/12/28 13:33:33;;;;;;;18.70;13.20;;;;;;;-2.83;75.76;98936.26;209021;1316;141485;-67
2021/12/28 13:38:37;;;;;;;16.40;11.30;;;;;;;-2.87;75.94;98928.73;207458;1317;161128;-66
2021/12/28 13:43:40;;;;;;;26.20;15.10;;;;;;;-2.91;75.92;98910.39;209371;1315;141429;-67
2021/12/28 13:48:46;;;;;;;29.30;17.90;;;;;;;-2.96;75.79;98908.48;208970;1316;141229;-67
2021/12/28 13:53:58;;;;;;;20.90;12.90;;;;;;;-3.03;75.92;98906.17;208129;1316;636959;-71
2021/12/28 13:59:04;;;;;;;28.80;16.00;;;;;;;-3.14;75.90;98903.61;208908;1314;141787;-69
2021/12/28 14:04:10;;;;;;;22.00;14.00;;;;;;;-3.22;75.81;98897.04;208056;1318;142284;-67
2021/12/28 14:09:16;;;;;;;27.60;15.50;;;;;;;-3.34;75.96;98890.27;207720;1317;141082;-65
2021/12/28 14:14:33;;;;;;;45.90;18.90;;;;;;;-3.44;76.18;98884.88;207332;1316;141167;-64
2021/12/28 14:19:40;;;;;;;27.30;13.90;;;;;;;-3.51;76.07;98879.36;207130;1316;141655;-65
2021/12/28 14:24:52;;;;;;;19.80;12.10;;;;;;;-3.64;76.14;98872.66;208668;1318;140475;-65
2021/12/28 14:30:16;;;;;;;30.10;15.00;;;;;;;-3.77;76.44;98871.06;207651;1315;140769;-65
2021/12/28 14:35:27;;;;;;;28.60;15.50;;;;;;;-3.80;76.41;98871.77;207428;1315;141586;-64
2021/12/28 14:40:31;;;;;;;24.00;14.50;;;;;;;-3.86;76.54;98882.20;207241;1318;141599;-66
2021/12/28 14:45:41;;;;;;;23.60;15.30;;;;;;;-3.95;76.68;98885.35;207998;1316;140538;-66
2021/12/28 14:50:45;;;;;;;24.80;13.30;;;;;;;-4.02;76.76;98890.48;208137;1315;140332;-65
2021/12/28 14:55:53;;;;;;;25.70;13.70;;;;;;;-4.07;76.75;98889.63;207813;1318;141833;-64
2021/12/28 15:00:59;;;;;;;21.70;9.90;;;;;;;-4.15;77.03;98888.92;207101;1317;141825;-68
2021/12/28 15:06:05;;;;;;;31.70;18.20;;;;;;;-4.20;77.08;98882.29;206957;1318;142465;-67
2021/12/28 15:11:09;;;;;;;31.90;14.80;;;;;;;-4.22;77.18;98882.86;207150;1317;141225;-67
2021/12/28 15:16:15;;;;;;;28.40;15.30;;;;;;;-4.26;77.47;98877.04;207020;1318;140385;-66
2021/12/28 15:21:20;;;;;;;44.80;20.90;;;;;;;-4.25;77.38;98875.02;207799;1316;141068;-65
2021/12/28 15:26:27;;;;;;;24.00;13.00;;;;;;;-4.20;77.41;98873.50;207025;1316;141306;-65
2021/12/28 15:31:33;;;;;;;25.80;13.30;;;;;;;-4.22;77.25;98863.48;207638;1316;140944;-66
2021/12/28 15:36:40;;;;;;;29.00;16.00;;;;;;;-4.28;77.48;98860.46;209200;1316;232998;-67
2021/12/28 15:41:46;;;;;;;30.70;16.10;;;;;;;-4.31;77.25;98846.88;207604;1316;142727;-65
2021/12/28 15:46:49;;;;;;;25.60;13.60;;;;;;;-4.33;77.28;98840.40;208370;1316;141071;-65
2021/12/28 15:51:53;;;;;;;29.90;15.80;;;;;;;-4.40;77.35;98833.30;208426;1316;140225;-66
2021/12/28 15:56:56;;;;;;;24.50;14.50;;;;;;;-4.40;77.33;98829.30;207387;1318;140522;-65
2021/12/28 16:02:00;;;;;;;25.50;14.50;;;;;;;-4.39;77.35;98820.52;209506;1316;139980;-68
2021/12/28 16:07:03;;;;;;;31.40;16.70;;;;;;;-4.43;77.50;98812.38;208829;1316;140101;-67
2021/12/28 16:12:10;;;;;;;21.80;14.10;;;;;;;-4.42;77.43;98812.09;208155;1313;141429;-65
2021/12/28 16:17:13;;;;;;;26.10;14.50;;;;;;;-4.39;77.49;98809.07;207655;1314;140449;-66
2021/12/28 16:22:23;;;;;;;22.60;13.50;;;;;;;-4.40;77.50;98804.16;208355;1318;140121;-67
2021/12/28 16:27:27;;;;;;;26.30;13.70;;;;;;;-4.41;77.46;98797.92;207913;1317;140964;-64
2021/12/28 16:32:33;;;;;;;27.10;14.70;;;;;;;-4.41;77.57;98798.64;207986;1317;142687;-65
2021/12/28 16:37:37;;;;;;;;;;;;;;;-4.42;77.57;98809.88;207105;1316;140601;-66
2021/12/28 16:42:43;;;;;;;33.60;17.80;;;;;;;-4.44;77.76;98806.79;207749;1316;127421;-68
2021/12/28 16:47:46;;;;;;;32.70;17.70;;;;;;;-4.46;77.87;98803.17;208279;1311;151720;-67
2021/12/28 16:52:50;;;;;;;29.40;15.60;;;;;;;-4.47;77.85;98799.60;207180;1316;142462;-70
2021/12/28 16:57:54;;;;;;;28.80;14.20;;;;;;;-4.45;77.85;98799.96;207322;1316;140938;-65
2021/12/28 17:02:57;;;;;;;31.70;17.40;;;;;;;-4.49;78.01;98808.15;207469;1316;140618;-67
2021/12/28 17:08:02;;;;;;;16.20;12.30;;;;;;;-4.44;78.10;98808.32;206972;1316;142631;-72
2021/12/28 17:13:05;;;;;;;32.20;18.80;;;;;;;-4.44;78.18;98809.42;207312;1317;142364;-72
2021/12/28 17:18:09;;;;;;;27.80;17.80;;;;;;;-4.39;78.33;98810.98;207238;1316;141292;-72
2021/12/28 17:23:13;;;;;;;29.00;17.00;;;;;;;-4.33;78.34;98817.15;207775;1315;141254;-71
2021/12/28 17:28:19;;;;;;;26.90;15.60;;;;;;;-4.37;78.17;98817.52;208139;1316;140886;-72
2021/12/28 17:33:22;;;;;;;35.40;19.00;;;;;;;-4.34;78.23;98825.40;207694;1316;141126;-68
2021/12/28 17:38:26;;;;;;;25.30;13.40;;;;;;;-4.31;78.19;98826.45;208078;1316;140431;-68
2021/12/28 17:43:29;;;;;;;30.00;17.00;;;;;;;-4.30;78.40;98825.24;206810;1318;141554;-73
2021/12/28 17:48:33;;;;;;;38.60;20.40;;;;;;;-4.28;78.26;98821.72;209261;1316;142423;-70
2021/12/28 17:53:37;;;;;;;30.60;17.20;;;;;;;-4.26;78.37;98822.59;207161;1315;140120;-71
2021/12/28 17:58:39;;;;;;;25.30;13.10;;;;;;;-4.23;78.24;98820.52;208670;1318;141413;-72
2021/12/28 18:03:42;;;;;;;29.70;15.40;;;;;;;-4.18;78.31;98815.48;208275;1318;141470;-72
2021/12/28 18:08:45;;;;;;;28.60;17.20;;;;;;;-4.17;78.28;98806.17;207144;1317;140605;-70
2021/12/28 18:13:49;;;;;;;24.10;14.70;;;;;;;-4.15;78.14;98793.84;207824;1316;141093;-69
2021/12/28 18:18:53;;;;;;;32.90;17.60;;;;;;;-4.11;78.41;98785.38;206919;1318;140349;-68
2021/12/28 18:23:59;;;;;;;29.50;16.00;;;;;;;-4.11;78.47;98779.30;207692;1316;140349;-68
2021/12/28 18:29:21;;;;;;;38.00;20.00;;;;;;;-4.08;78.29;98770.02;208087;1316;140317;-70
2021/12/28 18:34:26;;;;;;;24.40;12.00;;;;;;;-4.01;78.52;98765.08;208116;1316;142011;-71
2021/12/28 18:39:30;;;;;;;25.00;13.40;;;;;;;-4.02;78.60;98762.17;206963;1317;139680;-69
2021/12/28 18:44:34;;;;;;;32.30;19.20;;;;;;;-4.00;78.72;98761.82;207164;1316;139413;-70
2021/12/28 18:49:41;;;;;;;34.70;16.90;;;;;;;-3.94;78.66;98750.27;207461;1316;140122;-71
2021/12/28 18:54:46;;;;;;;31.90;18.10;;;;;;;-3.93;78.75;98745.09;207722;1316;140007;-70
2021/12/28 18:59:49;;;;;;;34.90;18.40;;;;;;;-3.92;78.87;98735.27;207070;1316;140214;-71
2021/12/28 19:04:53;;;;;;;38.00;18.80;;;;;;;-3.88;78.87;98727.90;207753;1318;140897;-70
2021/12/28 19:09:59;;;;;;;27.10;12.40;;;;;;;-3.81;78.97;98727.10;208085;1315;140108;-71
2021/12/28 19:15:06;;;;;;;25.30;15.60;;;;;;;-3.81;78.91;98721.73;208131;1315;140523;-69
2021/12/28 19:20:12;;;;;;;36.10;17.90;;;;;;;-3.83;78.86;98714.28;207982;1316;140931;-70
2021/12/28 19:25:16;;;;;;;29.90;17.00;;;;;;;-3.82;79.08;98703.25;208286;1316;140202;-69
2021/12/28 19:30:21;;;;;;;37.60;20.00;;;;;;;-3.83;79.10;98689.45;208374;1318;139798;-68
2021/12/28 19:35:27;;;;;;;32.70;17.90;;;;;;;-3.80;78.92;98691.55;208659;1316;141044;-71
2021/12/28 19:40:33;;;;;;;31.30;16.80;;;;;;;-3.81;79.08;98694.95;209021;1316;140330;-72
2021/12/28 19:45:38;;;;;;;28.30;13.70;;;;;;;-3.79;79.19;98688.53;207508;1316;141295;-71
2021/12/28 19:50:41;;;;;;;36.70;21.50;;;;;;;-3.79;79.10;98685.54;208557;1318;141427;-71
2021/12/28 19:55:45;;;;;;;25.20;13.80;;;;;;;-3.80;79.07;98691.07;207962;1318;142639;-70
2021/12/28 20:00:51;;;;;;;35.90;17.80;;;;;;;-3.80;79.06;98690.74;207637;1316;140566;-67
2021/12/28 20:05:57;;;;;;;43.40;22.50;;;;;;;-3.83;79.03;98701.82;207821;1317;140253;-71
2021/12/28 20:11:00;;;;;;;41.80;21.50;;;;;;;-3.84;79.23;98706.45;209640;1315;140705;-73
2021/12/28 20:16:02;;;;;;;39.50;19.00;;;;;;;-3.82;79.14;98693.55;208221;1316;141500;-69
2021/12/28 20:21:07;;;;;;;31.00;15.20;;;;;;;-3.81;79.15;98686.68;208640;1317;141803;-69
2021/12/28 20:26:20;;;;;;;28.20;14.90;;;;;;;-3.83;78.99;98674.05;208488;1316;140907;-68
2021/12/28 20:31:24;;;;;;;30.90;18.80;;;;;;;-3.85;79.05;98674.78;208959;1315;140823;-69
2021/12/28 20:36:29;;;;;;;33.00;18.60;;;;;;;-3.90;79.14;98675.98;207995;1315;143000;-66
2021/12/28 20:41:34;;;;;;;29.00;16.20;;;;;;;-3.93;79.05;98673.54;206905;1315;141417;-66
2021/12/28 20:46:38;;;;;;;33.20;17.60;;;;;;;-3.94;79.06;98670.90;207323;1316;142353;-65
2021/12/28 20:51:45;;;;;;;30.60;14.30;;;;;;;-4.00;79.27;98673.51;207068;1318;141056;-65
2021/12/28 20:57:09;;;;;;;39.60;19.60;;;;;;;-4.05;79.24;98675.09;207030;1316;143337;-65
2021/12/28 21:02:13;;;;;;;35.70;20.20;;;;;;;-4.06;79.35;98667.90;207434;1316;141303;-69
2021/12/28 21:07:16;;;;;;;27.90;16.70;;;;;;;-4.12;79.34;98670.13;206932;1318;140911;-66
2021/12/28 21:12:19;;;;;;;34.00;18.80;;;;;;;-4.15;79.41;98675.63;207329;1317;140659;-71
2021/12/28 21:17:23;;;;;;;36.00;19.20;;;;;;;-4.14;79.37;98680.77;207740;1319;141723;-72
2021/12/28 21:22:29;;;;;;;31.40;16.30;;;;;;;-4.14;79.46;98682.30;206879;1318;142697;-68
2021/12/28 21:27:34;;;;;;;41.40;23.00;;;;;;;-4.16;79.36;98674.39;207460;1316;141747;-67
2021/12/28 21:32:37;;;;;;;30.20;17.90;;;;;;;-4.16;79.42;98674.55;207211;1316;142325;-68
2021/12/28 21:37:43;;;;;;;28.30;15.70;;;;;;;-4.19;79.55;98676.27;208754;1318;140533;-67
2021/12/28 21:42:47;;;;;;;42.00;18.40;;;;;;;-4.25;79.56;98663.77;207213;1317;140842;-67
2021/12/28 21:47:51;;;;;;;32.50;18.70;;;;;;;-4.25;79.44;98658.38;207463;1316;142286;-65
2021/12/28 21:52:54;;;;;;;30.00;15.40;;;;;;;-4.26;79.72;98656.35;207185;1318;600112;-69
2021/12/28 21:57:57;;;;;;;36.50;18.50;;;;;;;-4.28;79.53;98658.95;207833;1315;140498;-64
2021/12/28 22:02:59;;;;;;;22.20;12.90;;;;;;;-4.28;79.63;98663.19;208510;1318;141646;-68
2021/12/28 22:08:04;;;;;;;30.60;15.90;;;;;;;-4.24;79.67;98656.91;208368;1315;140126;-69
2021/12/28 22:13:07;;;;;;;24.80;10.50;;;;;;;-4.26;79.57;98650.64;207741;1316;140637;-66
2021/12/28 22:18:16;;;;;;;29.70;15.90;;;;;;;-4.27;79.69;98641.27;209016;1312;141925;-72
2021/12/28 22:23:20;;;;;;;33.30;19.00;;;;;;;-4.26;79.48;98636.13;208495;1316;140108;-67
2021/12/28 22:28:34;;;;;;;32.80;18.30;;;;;;;-4.24;79.47;98634.49;209581;1316;140070;-66
2021/12/28 22:33:43;;;;;;;32.40;18.60;;;;;;;-4.27;79.75;98629.40;208808;1316;141319;-68
2021/12/28 22:38:50;;;;;;;35.20;18.50;;;;;;;-4.24;79.64;98621.73;207727;1316;140255;-64
2021/12/28 22:43:56;;;;;;;30.70;15.60;;;;;;;-4.18;79.76;98625.19;208193;1315;141314;-65
2021/12/28 22:48:59;;;;;;;36.30;17.10;;;;;;;-4.19;79.90;98620.37;208608;1316;151570;-65
2021/12/28 22:54:05;;;;;;;31.00;13.70;;;;;;;-4.19;79.87;98620.38;208089;1316;140445;-65